Tiller, Oregon
Current Conditions -  °F | °C
As of 12:53 AM on Thursday 27 Nov 2014 (Local Time) from KRBG Reporting Station
Scattered Clouds Scattered Clouds  
Wind Chill: 53°   Ceiling: Unl
Heat Index: 53°   Visibility: 10mi
Dew Point: 47°   Wind: 3mph
Humidity: 80%   Direction: 220°SW
Pressure: 30.05"   Gusts: NA
Location:  42.93°N, 122.95°W
Report Text: KRBG 270853Z AUTO 22003KT 10SM SCT110 12/08 A3005 RMK AO2 SLP176 T01170083 56014 TSNO
Loading
Personal Weather Stations






























Interactive Weather Map New forecast layout! Learn more

10-Day Weather Forecast

Advertisements
Track Severe Weather on mobile